Time;durP1;ratioP1;P1;durP2;ratioP2;P2;SDS_P1;SDS_P2;PMS_P1;PMS_P2;Temp;Humidity;BMP_temperature;BMP_pressure;BME280_temperature;BME280_humidity;BME280_pressure;Samples;Min_cycle;Max_cycle;Signal;HPM_P1;HPM_P2
2022/07/20 00:01:43;;;;;;;5.80;3.17;;;17.10;99.90;;;;;;4995800;28;20199;-82
2022/07/20 00:04:09;;;;;;;9.57;4.25;;;17.10;99.90;;;;;;4996304;28;20184;-81
2022/07/20 00:06:34;;;;;;;6.75;3.50;;;17.00;99.90;;;;;;4996546;28;20174;-82
2022/07/20 00:11:46;;;;;;;7.45;3.88;;;17.00;99.90;;;;;;4994809;28;20612;-82
2022/07/20 00:14:12;;;;;;;5.20;3.50;;;16.90;99.90;;;;;;4996117;28;20177;-82
2022/07/20 00:16:38;;;;;;;5.50;3.38;;;16.90;99.90;;;;;;5003477;28;20696;-82
2022/07/20 00:19:03;;;;;;;6.15;3.50;;;16.90;99.90;;;;;;5014454;28;20177;-82
2022/07/20 00:21:29;;;;;;;5.72;3.22;;;16.80;99.90;;;;;;5014318;28;20182;-82
2022/07/20 00:23:55;;;;;;;6.57;3.70;;;16.80;99.90;;;;;;5015316;28;20188;-82
2022/07/20 00:26:21;;;;;;;8.38;4.45;;;16.80;99.90;;;;;;5014182;28;20181;-81
2022/07/20 00:28:46;;;;;;;7.13;4.10;;;16.80;99.90;;;;;;5014834;28;20248;-82
2022/07/20 00:31:12;;;;;;;4.68;2.80;;;16.80;99.90;;;;;;5014089;28;20263;-82
2022/07/20 00:33:38;;;;;;;9.30;3.75;;;16.80;99.90;;;;;;5014091;28;20186;-82
2022/07/20 00:36:04;;;;;;;8.18;4.72;;;16.70;99.90;;;;;;5014025;28;20653;-82
2022/07/20 00:38:29;;;;;;;10.82;4.25;;;16.70;99.90;;;;;;5030286;28;20272;-82
2022/07/20 00:40:55;;;;;;;5.63;3.25;;;16.70;99.90;;;;;;5015102;28;20213;-82
2022/07/20 00:43:21;;;;;;;6.35;3.45;;;16.70;99.90;;;;;;5014329;28;20600;-82
2022/07/20 00:45:46;;;;;;;5.18;3.58;;;16.70;99.90;;;;;;5014261;28;20647;-82
2022/07/20 00:48:12;;;;;;;5.10;3.10;;;16.70;99.90;;;;;;5015293;28;20268;-82
2022/07/20 00:50:38;;;;;;;5.60;3.42;;;16.60;99.90;;;;;;5015289;28;20557;-82
2022/07/20 00:53:04;;;;;;;4.55;2.95;;;16.60;99.90;;;;;;5014835;28;20196;-82
2022/07/20 00:55:30;;;;;;;7.13;3.10;;;16.60;99.90;;;;;;5013896;28;20630;-82
2022/07/20 00:57:56;;;;;;;6.78;3.88;;;16.60;99.90;;;;;;5013336;28;20185;-82
2022/07/20 01:00:21;;;;;;;4.85;3.28;;;16.50;99.90;;;;;;5013762;28;20227;-81
2022/07/20 01:02:47;;;;;;;6.47;3.65;;;16.60;99.90;;;;;;5014653;28;20193;-82
2022/07/20 01:05:15;;;;;;;5.13;3.20;;;16.60;99.90;;;;;;5014791;28;20642;-82
2022/07/20 01:07:46;;;;;;;4.25;3.10;;;16.60;99.90;;;;;;5013202;28;20193;-82
2022/07/20 01:10:14;;;;;;;5.57;3.55;;;16.60;99.90;;;;;;5015005;28;20176;-82
2022/07/20 01:12:44;;;;;;;4.53;3.20;;;16.50;99.90;;;;;;5013572;28;20185;-82
2022/07/20 01:15:09;;;;;;;3.92;3.25;;;16.40;99.90;;;;;;5014574;28;20181;-82
2022/07/20 01:17:35;;;;;;;6.47;2.95;;;16.50;99.90;;;;;;5013381;28;20267;-82
2022/07/20 01:20:01;;;;;;;6.20;3.45;;;16.40;99.90;;;;;;5012965;28;20205;-82
2022/07/20 01:22:27;;;;;;;7.07;3.83;;;16.40;99.90;;;;;;5013256;28;20185;-82
2022/07/20 01:24:52;;;;;;;4.95;3.33;;;16.40;99.90;;;;;;5014279;28;20252;-82
2022/07/20 01:27:18;;;;;;;5.93;3.85;;;16.40;99.90;;;;;;4996861;28;20193;-82
2022/07/20 01:29:44;;;;;;;7.53;3.75;;;16.40;99.90;;;;;;5013089;28;20694;-81
2022/07/20 01:32:09;;;;;;;4.25;3.50;;;16.40;99.90;;;;;;5012790;28;20209;-82
2022/07/20 01:34:36;;;;;;;4.63;3.67;;;16.30;99.90;;;;;;5014001;28;20232;-81
2022/07/20 01:37:02;;;;;;;6.15;3.67;;;16.30;99.90;;;;;;5014055;28;20205;-81
2022/07/20 01:39:27;;;;;;;4.95;3.22;;;16.30;99.90;;;;;;5013041;28;20272;-81
2022/07/20 01:41:53;;;;;;;4.28;3.03;;;16.30;99.90;;;;;;5012674;28;20193;-82
2022/07/20 01:44:22;;;;;;;4.78;3.03;;;16.20;99.90;;;;;;5014171;28;20304;-82
2022/07/20 01:46:49;;;;;;;5.90;3.78;;;16.20;99.90;;;;;;5012798;28;20611;-81
2022/07/20 01:49:16;;;;;;;5.32;3.33;;;16.20;99.90;;;;;;5029156;28;20264;-81
2022/07/20 01:51:42;;;;;;;7.85;3.47;;;16.20;99.90;;;;;;5012838;28;20563;-81
2022/07/20 01:54:08;;;;;;;4.97;3.35;;;16.20;99.90;;;;;;5012898;28;20272;-81
2022/07/20 01:56:33;;;;;;;7.05;4.22;;;16.20;99.90;;;;;;5012978;28;20186;-81
2022/07/20 01:58:59;;;;;;;6.20;3.80;;;16.20;99.90;;;;;;5012523;28;20189;-82
2022/07/20 02:01:24;;;;;;;5.13;3.25;;;16.10;99.90;;;;;;5012653;28;20595;-81
2022/07/20 02:03:50;;;;;;;5.78;3.20;;;16.10;99.90;;;;;;5012870;28;20208;-81
2022/07/20 02:06:15;;;;;;;7.00;3.45;;;16.10;99.90;;;;;;5013640;28;20177;-82
2022/07/20 02:08:41;;;;;;;4.72;3.38;;;16.10;99.90;;;;;;5013490;28;20185;-81
2022/07/20 02:11:07;;;;;;;5.00;3.33;;;16.10;99.90;;;;;;5012254;28;20585;-82
2022/07/20 02:13:35;;;;;;;4.55;2.78;;;15.30;99.90;;;;;;5013376;28;20650;-82
2022/07/20 02:16:17;;;;;;;5.72;3.78;;;16.00;99.90;;;;;;5013758;28;20177;-81
2022/07/20 02:18:52;;;;;;;4.57;3.30;;;15.90;99.90;;;;;;5012772;28;20173;-81
2022/07/20 02:21:20;;;;;;;4.00;3.30;;;15.90;99.90;;;;;;5028761;28;20176;-80
2022/07/20 02:23:46;;;;;;;6.20;3.80;;;16.00;99.90;;;;;;5012503;28;20567;-81
2022/07/20 02:26:12;;;;;;;5.32;3.65;;;15.90;99.90;;;;;;5013425;28;20244;-80
2022/07/20 02:28:38;;;;;;;6.10;3.05;;;15.90;99.90;;;;;;5012264;28;20272;-81
2022/07/20 02:31:05;;;;;;;4.55;3.22;;;15.80;99.90;;;;;;5013080;28;20197;-80
2022/07/20 02:33:30;;;;;;;5.25;3.35;;;15.80;99.90;;;;;;5012345;28;20602;-80
2022/07/20 02:35:56;;;;;;;4.57;3.15;;;15.70;99.90;;;;;;5013326;28;20180;-84
2022/07/20 02:38:22;;;;;;;3.95;3.08;;;15.80;99.90;;;;;;5013147;28;20203;-80
2022/07/20 02:40:48;;;;;;;7.35;3.90;;;15.80;99.90;;;;;;4998946;28;20213;-80
2022/07/20 02:43:13;;;;;;;5.00;3.17;;;15.80;99.90;;;;;;4992401;28;20193;-80
2022/07/20 02:45:39;;;;;;;4.10;2.97;;;15.70;99.90;;;;;;4992542;28;20184;-82
2022/07/20 02:48:05;;;;;;;5.05;3.22;;;15.70;99.90;;;;;;4993615;28;20188;-82
2022/07/20 02:50:33;;;;;;;4.75;3.30;;;15.70;99.90;;;;;;4993965;28;20206;-81
2022/07/20 02:53:00;;;;;;;5.75;3.70;;;15.70;99.90;;;;;;4992204;28;20201;-83
2022/07/20 02:55:26;;;;;;;4.90;3.60;;;15.70;99.90;;;;;;4993658;28;20178;-82
2022/07/20 02:57:52;;;;;;;6.35;3.42;;;15.70;99.90;;;;;;4993608;28;20186;-82
2022/07/20 03:00:19;;;;;;;6.70;3.22;;;15.70;99.90;;;;;;4975948;28;20654;-82
2022/07/20 03:02:47;;;;;;;9.93;3.90;;;15.70;99.90;;;;;;4993692;28;20182;-82
2022/07/20 03:05:13;;;;;;;8.25;4.47;;;15.70;99.90;;;;;;4992395;28;20223;-82
2022/07/20 03:07:39;;;;;;;7.15;3.80;;;15.70;99.90;;;;;;4993951;28;20256;-81
2022/07/20 03:10:05;;;;;;;12.15;5.47;;;15.60;99.90;;;;;;4996007;28;20174;-82
2022/07/20 03:12:31;;;;;;;9.40;5.47;;;15.70;99.90;;;;;;4995905;28;20674;-82
2022/07/20 03:14:57;;;;;;;14.68;6.15;;;15.70;99.90;;;;;;4996466;28;20185;-82
2022/07/20 03:17:22;;;;;;;11.38;6.13;;;15.70;99.90;;;;;;4995862;28;20181;-82
2022/07/20 03:19:48;;;;;;;8.85;5.47;;;15.70;99.90;;;;;;4996991;28;20178;-82
2022/07/20 03:22:14;;;;;;;7.13;5.15;;;15.70;99.90;;;;;;4996633;28;20182;-82
2022/07/20 03:24:40;;;;;;;12.02;7.50;;;15.80;99.90;;;;;;4996808;28;20261;-82
2022/07/20 03:27:05;;;;;;;18.65;8.70;;;15.80;99.90;;;;;;4996918;28;20639;-83
2022/07/20 03:29:31;;;;;;;13.38;7.47;;;15.80;99.90;;;;;;4995481;28;20287;-82
2022/07/20 03:31:57;;;;;;;19.73;6.60;;;15.90;99.90;;;;;;4979428;28;20709;-82
2022/07/20 03:34:22;;;;;;;12.63;6.57;;;15.90;99.90;;;;;;4995689;28;20198;-82
2022/07/20 03:36:50;;;;;;;10.32;5.53;;;15.80;99.90;;;;;;4995788;28;20182;-82
2022/07/20 03:39:17;;;;;;;14.07;6.45;;;16.00;99.90;;;;;;4995588;28;20186;-82
2022/07/20 03:41:42;;;;;;;10.82;6.18;;;16.00;99.90;;;;;;4996852;28;20269;-82
2022/07/20 03:44:08;;;;;;;9.82;4.75;;;16.00;99.90;;;;;;4996717;28;20209;-81
2022/07/20 03:46:33;;;;;;;8.93;5.85;;;16.10;99.90;;;;;;4997031;28;20201;-81
2022/07/20 03:48:59;;;;;;;8.23;5.63;;;16.10;99.90;;;;;;4995642;28;20186;-80
2022/07/20 03:51:25;;;;;;;10.60;6.03;;;16.20;99.90;;;;;;4996343;28;20260;-80
2022/07/20 03:53:50;;;;;;;8.60;5.40;;;16.20;99.90;;;;;;4996672;28;20260;-80
2022/07/20 03:56:16;;;;;;;7.78;5.28;;;16.30;99.90;;;;;;4995192;28;20316;-81
2022/07/20 03:58:42;;;;;;;9.77;5.70;;;16.30;99.90;;;;;;4996550;28;20232;-81
2022/07/20 04:01:07;;;;;;;8.63;5.47;;;16.40;99.90;;;;;;4995125;28;20754;-82
2022/07/20 04:03:33;;;;;;;10.60;5.72;;;16.50;99.90;;;;;;4996416;28;20197;-81
2022/07/20 04:06:00;;;;;;;9.80;5.75;;;16.60;99.90;;;;;;4995242;28;20658;-81
2022/07/20 04:08:25;;;;;;;8.82;5.07;;;16.60;99.90;;;;;;4996178;28;20189;-81
2022/07/20 04:10:51;;;;;;;8.93;5.65;;;16.80;99.90;;;;;;4996219;28;20209;-81
2022/07/20 04:13:16;;;;;;;10.88;6.13;;;16.90;99.90;;;;;;4994855;28;20612;-81
2022/07/20 04:15:42;;;;;;;9.73;6.10;;;16.90;99.90;;;;;;4994729;28;20186;-81
2022/07/20 04:18:08;;;;;;;15.25;7.30;;;17.00;99.90;;;;;;4994786;28;20221;-85
2022/07/20 04:20:33;;;;;;;9.43;6.03;;;17.10;99.90;;;;;;4995201;28;20218;-81
2022/07/20 04:22:59;;;;;;;11.30;6.30;;;17.20;99.90;;;;;;4994480;28;20177;-81
2022/07/20 04:25:24;;;;;;;12.18;6.18;;;17.30;99.90;;;;;;4995783;28;20244;-81
2022/07/20 04:27:50;;;;;;;9.80;5.35;;;17.40;99.90;;;;;;4978573;28;20205;-81
2022/07/20 04:30:16;;;;;;;7.75;5.32;;;17.50;99.90;;;;;;4994136;28;20575;-82
2022/07/20 04:32:42;;;;;;;7.03;4.85;;;17.60;99.90;;;;;;4995656;28;20181;-81
2022/07/20 04:35:09;;;;;;;11.88;5.15;;;17.80;99.90;;;;;;4994578;28;20180;-81
2022/07/20 04:37:35;;;;;;;9.77;5.00;;;17.80;99.90;;;;;;4994693;28;20181;-82
2022/07/20 04:40:01;;;;;;;10.82;5.10;;;18.00;99.90;;;;;;4994356;28;20542;-81
2022/07/20 04:42:27;;;;;;;9.85;4.75;;;18.10;99.90;;;;;;4995432;28;20177;-81
2022/07/20 04:44:52;;;;;;;9.68;4.20;;;18.30;99.90;;;;;;4994145;28;20186;-81
2022/07/20 04:47:18;;;;;;;10.98;4.38;;;18.40;99.90;;;;;;4995373;28;20180;-82
2022/07/20 04:49:44;;;;;;;6.53;4.20;;;18.60;99.90;;;;;;5012269;28;20239;-82
2022/07/20 04:52:09;;;;;;;7.35;4.68;;;18.70;99.90;;;;;;5020386;28;20201;-81
2022/07/20 04:54:35;;;;;;;6.43;4.40;;;18.80;99.90;;;;;;5025926;28;20180;-82
2022/07/20 04:57:01;;;;;;;6.97;4.25;;;19.00;99.90;;;;;;5032870;28;20188;-84
2022/07/20 04:59:28;;;;;;;5.25;3.97;;;19.20;99.90;;;;;;5034585;28;20648;-82
2022/07/20 05:01:53;;;;;;;8.80;4.53;;;19.30;99.90;;;;;;5034432;28;20299;-82
2022/07/20 05:04:19;;;;;;;5.97;4.15;;;19.40;99.90;;;;;;5032613;28;20180;-82
2022/07/20 05:06:44;;;;;;;5.70;3.90;;;19.50;99.90;;;;;;5032788;28;20538;-83
2022/07/20 05:09:10;;;;;;;5.90;3.63;;;19.70;99.90;;;;;;5033604;28;20184;-82
2022/07/20 05:11:37;;;;;;;7.90;3.83;;;19.80;99.90;;;;;;5033672;28;20669;-81
2022/07/20 05:14:03;;;;;;;6.82;3.92;;;19.90;99.90;;;;;;5011015;28;20194;-83
2022/07/20 05:16:28;;;;;;;5.45;3.67;;;20.00;99.90;;;;;;5005662;28;20181;-82
2022/07/20 05:18:54;;;;;;;5.43;3.15;;;20.10;99.90;;;;;;5002150;28;20184;-82
2022/07/20 05:21:20;;;;;;;7.90;3.80;;;20.20;99.90;;;;;;5004405;28;20193;-82
2022/07/20 05:23:45;;;;;;;5.00;3.33;;;20.30;99.90;;;;;;5001799;28;20322;-81
2022/07/20 05:29:33;;;;;;;8.55;3.38;;;20.50;99.90;;;;;;5251452;22;20768;-83
2022/07/20 05:31:59;;;;;;;5.88;3.22;;;20.70;99.90;;;;;;5031308;28;20209;-83
2022/07/20 05:34:24;;;;;;;5.57;3.38;;;20.80;99.90;;;;;;4995695;28;20661;-85
2022/07/20 05:36:50;;;;;;;5.65;3.40;;;20.90;99.90;;;;;;5021467;28;20224;-80
2022/07/20 05:39:15;;;;;;;5.53;2.85;;;20.90;99.90;;;;;;5014867;28;20190;-80
2022/07/20 05:41:41;;;;;;;5.85;3.65;;;21.00;99.90;;;;;;4994636;28;20624;-81
2022/07/20 05:44:06;;;;;;;5.93;3.53;;;21.00;99.90;;;;;;4976726;28;20191;-81
2022/07/20 05:46:32;;;;;;;5.07;3.10;;;21.10;99.90;;;;;;5012755;28;20592;-82
2022/07/20 05:48:58;;;;;;;5.68;3.72;;;21.20;99.90;;;;;;5013001;28;20272;-81
2022/07/20 05:51:23;;;;;;;4.90;2.80;;;21.30;99.90;;;;;;4993112;28;20681;-83
2022/07/20 05:53:49;;;;;;;5.30;2.92;;;21.30;99.90;;;;;;4993590;28;20188;-81
2022/07/20 05:56:14;;;;;;;6.40;3.15;;;21.40;99.90;;;;;;4994145;28;20189;-81
2022/07/20 05:58:40;;;;;;;4.93;3.38;;;21.50;99.90;;;;;;4995260;28;20196;-81
2022/07/20 06:01:05;;;;;;;3.97;2.70;;;21.50;99.90;;;;;;4995974;28;20549;-81
2022/07/20 06:03:31;;;;;;;5.40;3.13;;;21.60;99.90;;;;;;4995423;28;20177;-81
2022/07/20 06:05:57;;;;;;;5.72;3.38;;;21.70;99.90;;;;;;4978570;28;20188;-82
2022/07/20 06:08:22;;;;;;;4.28;3.30;;;21.80;99.90;;;;;;4994620;28;20255;-82
2022/07/20 06:10:48;;;;;;;5.13;3.17;;;21.80;99.90;;;;;;4994312;28;20216;-83
2022/07/20 06:13:13;;;;;;;4.13;3.20;;;21.90;99.90;;;;;;5011983;28;20191;-81
2022/07/20 06:15:39;;;;;;;6.43;2.92;;;22.00;99.90;;;;;;4994600;28;20646;-82
2022/07/20 06:18:06;;;;;;;5.45;3.17;;;22.10;99.90;;;;;;4994677;28;20317;-82
2022/07/20 06:20:32;;;;;;;4.43;2.80;;;22.20;99.90;;;;;;5013073;28;20187;-82
2022/07/20 06:22:58;;;;;;;5.13;2.55;;;22.30;99.90;;;;;;5013333;28;20177;-82
2022/07/20 06:25:24;;;;;;;3.90;2.67;;;22.40;99.90;;;;;;5013368;28;20220;-81
2022/07/20 06:27:50;;;;;;;5.97;3.13;;;22.50;99.90;;;;;;5013049;28;20186;-82
2022/07/20 06:30:15;;;;;;;5.78;3.10;;;22.60;99.90;;;;;;5010639;28;20235;-82
2022/07/20 06:32:42;;;;;;;4.72;3.25;;;22.60;99.90;;;;;;5032712;28;20187;-81
2022/07/20 06:35:08;;;;;;;4.88;3.03;;;22.70;99.90;;;;;;5033022;28;20181;-82
2022/07/20 06:37:34;;;;;;;3.13;2.72;;;22.70;99.90;;;;;;5032795;28;20200;-83
2022/07/20 06:40:00;;;;;;;3.97;2.50;;;22.80;99.90;;;;;;5032903;28;20567;-83
2022/07/20 06:42:25;;;;;;;4.00;3.05;;;22.90;99.90;;;;;;5015307;28;20676;-82
2022/07/20 06:44:51;;;;;;;5.07;2.75;;;22.90;99.90;;;;;;5018842;28;20259;-82
2022/07/20 06:47:16;;;;;;;4.30;2.50;;;23.00;99.90;;;;;;5018816;28;20684;-83
2022/07/20 06:49:42;;;;;;;5.38;2.92;;;23.00;99.90;;;;;;5036425;28;20184;-83
2022/07/20 06:52:08;;;;;;;4.03;2.72;;;23.10;99.90;;;;;;5036446;28;20223;-84
2022/07/20 06:54:34;;;;;;;5.00;3.00;;;23.20;99.90;;;;;;5036345;28;20199;-84
2022/07/20 06:56:59;;;;;;;3.08;2.50;;;23.20;99.90;;;;;;5037205;28;20634;-83
2022/07/20 06:59:25;;;;;;;5.38;2.50;;;23.20;99.90;;;;;;5036639;28;20184;-82
2022/07/20 07:01:51;;;;;;;2.78;2.50;;;23.30;99.90;;;;;;5017531;28;20184;-82
2022/07/20 07:04:17;;;;;;;4.93;2.63;;;23.40;99.90;;;;;;5001848;28;20181;-83
2022/07/20 07:06:42;;;;;;;3.92;2.67;;;23.50;99.90;;;;;;5017563;28;20188;-82
2022/07/20 07:09:09;;;;;;;3.97;2.72;;;23.60;99.90;;;;;;5035670;28;20203;-83
2022/07/20 07:11:35;;;;;;;3.70;2.72;;;23.60;99.90;;;;;;5035240;28;20196;-83
2022/07/20 07:14:01;;;;;;;7.88;2.75;;;23.70;99.90;;;;;;5035669;28;20196;-82
2022/07/20 07:16:26;;;;;;;4.07;2.42;;;23.70;99.90;;;;;;5035203;28;20179;-83
2022/07/20 07:18:52;;;;;;;4.20;2.60;;;23.80;99.90;;;;;;5035225;28;20187;-83
2022/07/20 07:21:18;;;;;;;3.58;2.45;;;23.80;99.90;;;;;;5017872;28;20518;-83
2022/07/20 07:23:45;;;;;;;3.40;2.17;;;23.90;99.90;;;;;;5034927;28;20185;-83
2022/07/20 07:26:11;;;;;;;3.38;2.25;;;24.00;99.90;;;;;;5032823;28;20165;-83
2022/07/20 07:28:37;;;;;;;2.78;2.05;;;24.00;99.90;;;;;;5034757;28;20188;-82
2022/07/20 07:31:02;;;;;;;6.70;2.58;;;24.10;99.90;;;;;;5024743;28;20231;-82
2022/07/20 07:33:28;;;;;;;3.88;2.40;;;24.20;99.90;;;;;;5036405;28;20193;-82
2022/07/20 07:35:54;;;;;;;2.67;1.95;;;24.30;99.90;;;;;;5036106;28;20576;-82
2022/07/20 07:38:20;;;;;;;3.28;2.42;;;24.30;99.90;;;;;;5036281;28;20268;-82
2022/07/20 07:40:46;;;;;;;3.63;2.20;;;24.40;99.90;;;;;;5036145;28;20671;-81
2022/07/20 07:43:12;;;;;;;3.35;1.83;;;24.40;99.90;;;;;;5036235;28;20181;-81
2022/07/20 07:45:38;;;;;;;3.28;2.10;;;24.40;99.90;;;;;;5035915;28;20177;-83
2022/07/20 07:48:05;;;;;;;2.65;1.70;;;24.50;99.90;;;;;;5035902;28;20259;-81
2022/07/20 07:50:31;;;;;;;3.53;2.30;;;24.50;99.90;;;;;;5036031;28;20204;-81
2022/07/20 07:52:57;;;;;;;2.63;1.70;;;24.60;99.90;;;;;;5018730;28;20188;-82
2022/07/20 07:55:23;;;;;;;5.07;2.03;;;24.60;99.90;;;;;;5036172;28;20215;-82
2022/07/20 07:57:48;;;;;;;3.17;2.00;;;24.70;99.90;;;;;;5035789;28;20180;-82
2022/07/20 08:00:14;;;;;;;3.03;1.50;;;24.70;99.90;;;;;;5034267;28;20664;-81
2022/07/20 08:02:40;;;;;;;3.13;2.20;;;24.80;99.90;;;;;;5017791;28;20184;-82
2022/07/20 08:05:06;;;;;;;3.17;2.22;;;24.90;99.90;;;;;;5036537;28;20179;-81
2022/07/20 08:07:36;;;;;;;5.68;1.92;;;24.90;98.50;;;;;;5034183;28;20642;-82
2022/07/20 08:10:04;;;;;;;2.63;1.45;;;25.00;98.40;;;;;;5017197;28;20200;-83
2022/07/20 08:12:29;;;;;;;2.72;1.45;;;25.10;95.10;;;;;;5033398;28;20200;-83
2022/07/20 08:14:55;;;;;;;12.95;1.80;;;25.20;94.10;;;;;;5016917;28;20264;-82
2022/07/20 08:17:21;;;;;;;2.35;1.60;;;25.20;94.80;;;;;;5016687;28;20184;-84
2022/07/20 08:19:47;;;;;;;2.75;1.60;;;25.30;93.10;;;;;;5016651;28;20214;-82
2022/07/20 08:22:12;;;;;;;4.10;1.85;;;25.40;94.70;;;;;;5016070;28;20292;-84
2022/07/20 08:24:38;;;;;;;3.10;1.85;;;25.40;95.10;;;;;;5017010;28;20181;-81
2022/07/20 08:27:03;;;;;;;2.40;1.83;;;25.50;95.20;;;;;;5016624;28;20184;-82
2022/07/20 08:29:29;;;;;;;1.63;1.30;;;25.40;93.10;;;;;;5016692;28;20327;-82
2022/07/20 08:31:55;;;;;;;2.17;1.45;;;25.40;93.00;;;;;;5000320;28;20205;-83
2022/07/20 08:34:20;;;;;;;2.38;1.70;;;25.50;93.20;;;;;;5033296;28;20716;-82
2022/07/20 08:36:46;;;;;;;2.30;1.50;;;25.60;94.60;;;;;;5016668;28;20184;-82
2022/07/20 08:39:12;;;;;;;2.53;1.60;;;25.80;94.20;;;;;;5033292;28;20188;-81
2022/07/20 08:41:39;;;;;;;2.83;1.90;;;25.80;92.90;;;;;;5033385;28;20223;-82
2022/07/20 08:44:04;;;;;;;1.90;1.55;;;25.80;91.40;;;;;;5034399;28;20189;-83
2022/07/20 08:46:31;;;;;;;2.33;1.63;;;25.70;90.90;;;;;;5017010;28;20176;-84
2022/07/20 08:48:58;;;;;;;3.13;1.77;;;25.80;93.20;;;;;;5016283;28;20192;-84
2022/07/20 08:51:24;;;;;;;3.55;2.00;;;25.90;92.50;;;;;;5016360;28;20250;-83
2022/07/20 08:53:50;;;;;;;2.40;1.70;;;25.90;92.10;;;;;;5033576;28;20185;-83
2022/07/20 08:56:16;;;;;;;2.38;1.83;;;25.90;90.80;;;;;;5033800;28;20753;-83
2022/07/20 08:58:42;;;;;;;2.60;1.80;;;26.00;90.80;;;;;;5033613;28;20196;-82
2022/07/20 09:01:17;;;;;;;3.30;2.20;;;26.00;91.50;;;;;;5015715;28;20537;-84
2022/07/20 09:03:46;;;;;;;3.75;1.40;;;26.00;91.10;;;;;;5033731;28;20194;-83
2022/07/20 09:06:12;;;;;;;1.70;1.48;;;26.10;90.50;;;;;;5033441;28;20173;-83
2022/07/20 09:09:06;;;;;;;2.25;1.67;;;26.20;91.30;;;;;;5033390;28;20180;-82
2022/07/20 09:11:33;;;;;;;2.58;1.77;;;26.30;91.20;;;;;;5031700;28;20220;-82
2022/07/20 09:13:59;;;;;;;3.10;1.77;;;26.40;91.10;;;;;;5033235;28;20207;-83
2022/07/20 09:16:40;;;;;;;4.30;2.33;;;26.50;90.90;;;;;;5033340;28;20657;-83
2022/07/20 09:19:06;;;;;;;3.20;2.30;;;26.50;90.40;;;;;;5031937;28;20168;-83
2022/07/20 09:21:32;;;;;;;2.08;1.60;;;26.40;90.10;;;;;;5033152;28;20208;-83
2022/07/20 09:24:04;;;;;;;2.75;1.70;;;26.50;90.10;;;;;;5033082;28;20172;-83
2022/07/20 09:26:31;;;;;;;2.60;1.35;;;26.40;89.40;;;;;;5032990;28;20192;-84
2022/07/20 09:28:58;;;;;;;3.17;1.50;;;26.50;90.70;;;;;;5032515;28;20224;-82
2022/07/20 09:31:27;;;;;;;2.97;1.60;;;26.70;90.60;;;;;;5031720;28;20625;-83
2022/07/20 09:33:58;;;;;;;3.42;1.67;;;26.70;87.50;;;;;;5032383;28;20610;-83
2022/07/20 09:36:26;;;;;;;2.70;1.52;;;26.80;88.80;;;;;;5032758;28;20180;-84
2022/07/20 09:38:51;;;;;;;2.90;1.50;;;26.90;86.20;;;;;;5032307;28;20639;-83
2022/07/20 09:41:30;;;;;;;2.53;1.50;;;26.90;84.40;;;;;;5032787;28;20220;-84
2022/07/20 09:43:57;;;;;;;2.75;2.10;;;26.90;82.90;;;;;;5031148;28;20644;-83
2022/07/20 09:46:30;;;;;;;4.40;2.45;;;27.00;84.30;;;;;;5033419;28;20278;-83
2022/07/20 09:48:59;;;;;;;3.95;1.58;;;27.00;86.70;;;;;;5014961;28;20195;-83
2022/07/20 09:51:31;;;;;;;3.70;2.65;;;27.10;84.40;;;;;;5032407;28;20278;-85
2022/07/20 09:54:00;;;;;;;2.22;1.77;;;27.10;83.10;;;;;;5031259;28;20225;-84
2022/07/20 09:56:26;;;;;;;2.55;1.80;;;27.30;83.00;;;;;;5030603;28;20758;-84
2022/07/20 09:58:55;;;;;;;2.83;2.17;;;27.40;82.80;;;;;;5031094;28;20530;-85
2022/07/20 10:01:23;;;;;;;2.35;1.58;;;27.50;82.40;;;;;;5031904;28;20701;-83
2022/07/20 10:03:52;;;;;;;2.28;1.80;;;27.50;78.70;;;;;;5031828;28;20179;-83
2022/07/20 10:06:19;;;;;;;2.95;1.45;;;27.40;79.10;;;;;;5030659;28;20177;-84
2022/07/20 10:08:45;;;;;;;3.55;2.00;;;27.40;80.10;;;;;;5033081;28;20267;-82
2022/07/20 10:11:12;;;;;;;2.72;1.67;;;27.40;79.00;;;;;;5033248;28;20200;-82
2022/07/20 10:13:39;;;;;;;2.15;1.40;;;27.60;80.00;;;;;;5033719;28;20204;-83
2022/07/20 10:16:26;;;;;;;2.88;1.92;;;27.70;82.40;;;;;;5033226;28;20255;-83
2022/07/20 10:18:54;;;;;;;3.00;1.88;;;27.80;83.10;;;;;;5032647;28;20179;-82
2022/07/20 10:21:40;;;;;;;2.50;1.88;;;28.00;80.30;;;;;;5031707;28;20191;-82
2022/07/20 10:24:30;;;;;;;2.10;1.58;;;28.00;77.20;;;;;;5031521;28;20255;-83
2022/07/20 10:27:08;;;;;;;2.58;1.60;;;28.20;76.70;;;;;;5031479;28;20299;-84
2022/07/20 10:29:38;;;;;;;2.38;1.85;;;28.30;76.00;;;;;;5007251;28;20268;-83
2022/07/20 10:32:10;;;;;;;5.07;1.98;;;28.40;76.60;;;;;;5012943;28;20700;-84
2022/07/20 10:34:52;;;;;;;1.92;1.52;;;28.50;75.40;;;;;;5013446;28;20188;-83
2022/07/20 10:37:17;;;;;;;1.98;1.60;;;28.40;72.60;;;;;;5013242;28;20172;-83
2022/07/20 10:39:45;;;;;;;2.33;1.35;;;28.20;72.30;;;;;;5016932;28;20185;-83
2022/07/20 10:42:23;;;;;;;3.03;1.83;;;28.30;73.50;;;;;;5015669;28;20178;-84
2022/07/20 10:44:49;;;;;;;3.30;2.13;;;28.20;72.60;;;;;;5018202;28;20219;-82
2022/07/20 10:47:45;;;;;;;2.95;1.85;;;28.30;73.80;;;;;;5014809;28;20177;-83
2022/07/20 10:50:16;;;;;;;2.08;1.23;;;28.40;73.60;;;;;;5032472;28;20176;-83
2022/07/20 10:52:42;;;;;;;2.00;1.50;;;28.50;72.90;;;;;;5015245;28;20250;-83
2022/07/20 10:55:33;;;;;;;1.42;1.10;;;28.50;69.70;;;;;;5031456;28;20662;-83
2022/07/20 10:58:06;;;;;;;3.53;1.77;;;28.40;68.50;;;;;;5032488;28;20184;-88
2022/07/20 11:00:37;;;;;;;1.70;1.00;;;28.40;69.80;;;;;;5032774;28;20638;-83
2022/07/20 11:03:10;;;;;;;1.60;1.10;;;28.30;69.30;;;;;;5014749;28;20176;-83
2022/07/20 11:05:36;;;;;;;5.28;1.60;;;28.30;69.40;;;;;;5031818;28;20161;-83
2022/07/20 11:08:10;;;;;;;1.60;1.30;;;28.50;68.80;;;;;;5013404;28;20192;-84
2022/07/20 11:10:36;;;;;;;1.52;1.25;;;28.50;66.10;;;;;;5030197;28;20172;-83
2022/07/20 11:13:11;;;;;;;1.67;1.40;;;28.60;69.40;;;;;;4997568;28;20251;-85
2022/07/20 11:15:45;;;;;;;2.05;1.42;;;29.00;68.60;;;;;;5031782;28;20259;-85
2022/07/20 11:18:18;;;;;;;2.83;1.75;;;29.20;65.60;;;;;;5030138;28;20199;-83
2022/07/20 11:20:51;;;;;;;1.45;1.35;;;29.20;64.80;;;;;;5016974;28;20188;-83
2022/07/20 11:23:19;;;;;;;2.15;1.30;;;29.20;65.00;;;;;;5031121;28;20164;-83
2022/07/20 11:25:56;;;;;;;1.50;1.15;;;29.30;64.40;;;;;;5030882;28;20196;-83
2022/07/20 11:28:37;;;;;;;8.43;1.35;;;29.20;62.60;;;;;;5031294;28;20196;-84
2022/07/20 11:31:05;;;;;;;1.75;1.10;;;29.20;63.70;;;;;;5034346;28;20212;-86
2022/07/20 11:33:46;;;;;;;1.40;1.17;;;29.20;62.60;;;;;;5013534;28;20528;-84
2022/07/20 11:36:18;;;;;;;1.58;1.15;;;29.20;62.50;;;;;;5034578;28;20184;-85
2022/07/20 11:38:47;;;;;;;1.77;1.27;;;29.30;62.70;;;;;;5035663;28;20614;-84
2022/07/20 11:41:19;;;;;;;3.22;1.45;;;29.00;61.60;;;;;;5035360;28;20191;-83
2022/07/20 11:43:45;;;;;;;1.88;1.20;;;29.00;61.90;;;;;;5034288;28;20184;-84
2022/07/20 11:46:17;;;;;;;1.52;1.25;;;29.00;62.50;;;;;;5017666;28;20181;-83
2022/07/20 11:48:51;;;;;;;3.00;1.70;;;29.00;60.80;;;;;;5035744;28;20168;-84
2022/07/20 11:51:16;;;;;;;3.22;2.05;;;28.80;61.30;;;;;;5035102;28;20247;-83
2022/07/20 11:53:42;;;;;;;3.22;1.33;;;28.70;61.50;;;;;;5011655;28;20223;-83
2022/07/20 11:56:23;;;;;;;2.22;1.83;;;28.80;61.40;;;;;;5035397;28;20219;-84
2022/07/20 11:58:51;;;;;;;2.03;1.50;;;28.90;61.10;;;;;;5035341;28;20196;-83
2022/07/20 12:01:30;;;;;;;3.22;1.85;;;29.00;63.30;;;;;;5035130;28;20177;-83
2022/07/20 12:04:02;;;;;;;4.53;2.00;;;29.10;62.40;;;;;;5035157;28;20167;-83
2022/07/20 12:06:30;;;;;;;1.17;1.08;;;29.10;61.40;;;;;;5027968;28;20180;-84
2022/07/20 12:09:07;;;;;;;3.17;1.70;;;29.20;60.80;;;;;;5017803;28;20187;-83
2022/07/20 12:11:33;;;;;;;2.20;1.33;;;29.20;59.40;;;;;;5042608;28;20303;-84
2022/07/20 12:13:59;;;;;;;1.98;1.17;;;29.20;58.80;;;;;;5017521;28;20172;-82
2022/07/20 12:16:36;;;;;;;2.33;1.27;;;29.10;59.60;;;;;;5017354;28;20180;-83
2022/07/20 12:19:03;;;;;;;1.73;1.42;;;29.30;61.40;;;;;;5016964;28;20633;-84
2022/07/20 12:21:43;;;;;;;2.22;1.30;;;29.30;59.60;;;;;;5034819;28;20180;-83
2022/07/20 12:24:09;;;;;;;1.40;1.13;;;29.10;59.90;;;;;;5034860;28;20164;-88
2022/07/20 12:26:35;;;;;;;2.15;1.30;;;29.20;60.60;;;;;;5034887;28;20196;-84
2022/07/20 12:29:17;;;;;;;1.55;1.20;;;29.40;61.60;;;;;;5034137;28;20234;-83
2022/07/20 12:31:44;;;;;;;3.50;1.60;;;29.40;60.00;;;;;;5035290;28;20208;-82
2022/07/20 12:34:14;;;;;;;1.50;1.30;;;29.40;60.50;;;;;;5035505;28;20208;-82
2022/07/20 12:36:41;;;;;;;2.08;1.60;;;29.40;61.30;;;;;;5035959;28;20280;-83
2022/07/20 12:39:10;;;;;;;2.28;1.50;;;29.50;59.40;;;;;;5035188;28;20255;-83
2022/07/20 12:41:37;;;;;;;2.00;1.42;;;29.40;60.00;;;;;;4997206;28;20200;-84
2022/07/20 12:44:26;;;;;;;2.38;1.63;;;29.30;60.00;;;;;;5004759;28;20204;-82
2022/07/20 12:46:54;;;;;;;2.67;1.40;;;29.40;60.00;;;;;;5035640;28;20168;-82
2022/07/20 12:49:21;;;;;;;2.15;1.27;;;29.40;59.60;;;;;;5035183;28;20181;-83
2022/07/20 12:51:48;;;;;;;2.95;1.50;;;29.40;58.70;;;;;;5035428;28;20350;-83
2022/07/20 12:54:13;;;;;;;2.35;1.48;;;29.50;59.80;;;;;;5033881;28;20192;-83